Time;durP1;ratioP1;P1;durP2;ratioP2;P2;SDS_P1;SDS_P2;PMS_P1;PMS_P2;Temp;Humidity;BMP_temperature;BMP_pressure;BME280_temperature;BME280_humidity;BME280_pressure;Samples;Min_cycle;Max_cycle;Signal;HPM_P1;HPM_P2
2023/03/28 00:01:44;;;;;;;;;;;1.14;19.79;;;;;;2670240;76;20458;-90
2023/03/28 00:05:12;;;;;;;;;;;0.98;19.91;;;;;;2671333;76;20352;-90
2023/03/28 00:08:41;;;;;;;;;;;0.96;20.31;;;;;;2671561;76;21192;-90
2023/03/28 00:12:09;;;;;;;;;;;0.94;20.86;;;;;;2670583;76;20341;-91
2023/03/28 00:15:37;;;;;;;;;;;0.93;20.86;;;;;;2671418;76;20336;-90
2023/03/28 00:19:05;;;;;;;;;;;0.91;20.84;;;;;;2670299;76;21392;-90
2023/03/28 00:22:36;;;;;;;;;;;0.98;20.83;;;;;;2669942;76;21175;-91
2023/03/28 00:26:06;;;;;;;;;;;0.92;20.38;;;;;;2670572;76;20317;-91
2023/03/28 00:29:38;;;;;;;;;;;0.90;20.40;;;;;;2670227;76;20460;-91
2023/03/28 00:33:10;;;;;;;;;;;0.80;20.69;;;;;;2670775;76;20314;-91
2023/03/28 00:36:46;;;;;;;;;;;0.74;20.99;;;;;;2670208;76;20475;-91
2023/03/28 00:40:12;;;;;;;;;;;0.77;21.17;;;;;;2671137;76;20469;-90
2023/03/28 00:43:40;;;;;;;;;;;0.64;21.31;;;;;;2670611;76;20670;-91
2023/03/28 00:47:09;;;;;;;;;;;0.75;21.93;;;;;;2670769;76;20818;-91
2023/03/28 00:50:37;;;;;;;;;;;0.76;21.79;;;;;;2671225;76;20453;-91
2023/03/28 00:57:58;;;;;;;;;;;0.80;21.14;;;;;;2671974;76;20456;-92
2023/03/28 01:01:29;;;;;;;;;;;0.78;21.05;;;;;;2670866;76;20430;-93
2023/03/28 01:05:04;;;;;;;;;;;0.72;21.91;;;;;;2670138;76;20446;-93
2023/03/28 01:08:35;;;;;;;;;;;0.73;21.79;;;;;;2671369;76;20388;-91
2023/03/28 01:12:03;;;;;;;;;;;0.63;22.34;;;;;;2670679;76;20318;-91
2023/03/28 01:15:36;;;;;;;;;;;0.71;22.52;;;;;;2670454;76;20468;-91
2023/03/28 01:19:05;;;;;;;;;;;0.72;23.30;;;;;;2670681;76;20450;-92
2023/03/28 01:22:33;;;;;;;;;;;0.81;23.29;;;;;;2670607;76;20309;-92
2023/03/28 01:26:02;;;;;;;;;;;0.89;23.36;;;;;;2670544;76;20337;-90
2023/03/28 01:29:32;;;;;;;;;;;0.80;22.72;;;;;;2671426;76;20421;-91
2023/03/28 01:33:00;;;;;;;;;;;0.75;22.04;;;;;;2671117;76;20319;-91
2023/03/28 01:36:31;;;;;;;;;;;0.76;21.59;;;;;;2670933;76;20444;-91
2023/03/28 01:39:59;;;;;;;;;;;0.67;21.77;;;;;;2671254;76;20474;-91
2023/03/28 01:43:30;;;;;;;;;;;0.72;21.65;;;;;;2671206;76;20420;-90
2023/03/28 01:46:58;;;;;;;;;;;0.62;21.81;;;;;;2670887;76;20955;-91
2023/03/28 01:50:26;;;;;;;;;;;0.68;21.81;;;;;;2670482;76;20459;-91
2023/03/28 01:53:54;;;;;;;;;;;0.71;20.54;;;;;;2671618;76;20430;-91
2023/03/28 01:57:22;;;;;;;;;;;0.58;21.03;;;;;;2670408;76;20424;-91
2023/03/28 02:00:54;;;;;;;;;;;0.52;21.26;;;;;;2671222;76;20460;-91
2023/03/28 02:04:28;;;;;;;;;;;0.63;20.85;;;;;;2670799;76;20428;-92
2023/03/28 02:07:55;;;;;;;;;;;0.63;21.89;;;;;;2671251;76;20451;-91
2023/03/28 02:11:23;;;;;;;;;;;0.81;21.72;;;;;;2670378;76;20428;-91
2023/03/28 02:14:57;;;;;;;;;;;0.76;22.15;;;;;;2670449;76;20342;-91
2023/03/28 02:18:25;;;;;;;;;;;0.84;22.08;;;;;;2670297;76;20436;-92
2023/03/28 02:21:57;;;;;;;;;;;0.74;21.73;;;;;;2670792;76;20344;-92
2023/03/28 02:25:25;;;;;;;;;;;0.58;21.72;;;;;;2670567;76;20436;-92
2023/03/28 02:29:01;;;;;;;;;;;0.54;21.47;;;;;;2669105;76;20483;-92
2023/03/28 02:32:36;;;;;;;;;;;0.43;21.40;;;;;;2670476;76;20423;-91
2023/03/28 02:36:00;;;;;;;;;;;0.39;21.57;;;;;;2671099;76;20418;-91
2023/03/28 02:39:29;;;;;;;;;;;0.42;21.38;;;;;;2671124;76;20470;-91
2023/03/28 02:43:00;;;;;;;;;;;0.43;21.50;;;;;;2670551;76;20488;-90
2023/03/28 02:46:30;;;;;;;;;;;0.37;21.01;;;;;;2671475;76;20921;-91
2023/03/28 02:50:04;;;;;;;;;;;0.31;21.15;;;;;;2669995;76;20455;-91
2023/03/28 02:53:32;;;;;;;;;;;0.31;20.66;;;;;;2670807;76;20471;-91
2023/03/28 02:57:00;;;;;;;;;;;0.43;20.75;;;;;;2669573;76;20446;-90
2023/03/28 03:00:29;;;;;;;;;;;0.46;20.76;;;;;;2668979;76;20466;-89
2023/03/28 03:04:00;;;;;;;;;;;0.58;21.31;;;;;;2669422;76;20421;-89
2023/03/28 03:07:31;;;;;;;;;;;0.62;21.41;;;;;;2670660;76;20446;-89
2023/03/28 03:10:59;;;;;;;;;;;0.69;21.43;;;;;;2669833;76;20316;-89
2023/03/28 03:14:36;;;;;;;;;;;0.75;21.55;;;;;;2669995;76;20469;-90
2023/03/28 03:18:06;;;;;;;;;;;0.68;21.63;;;;;;2670302;76;20488;-90
2023/03/28 03:21:52;;;;;;;;;;;0.68;21.05;;;;;;2669037;76;20454;-90
2023/03/28 03:25:14;;;;;;;;;;;0.50;20.49;;;;;;2669962;76;20434;-91
2023/03/28 03:28:45;;;;;;;;;;;0.57;20.31;;;;;;2669233;76;21117;-90
2023/03/28 03:32:21;;;;;;;;;;;0.44;19.60;;;;;;2669812;76;20473;-90
2023/03/28 03:35:52;;;;;;;;;;;0.34;19.92;;;;;;2670394;76;20964;-91
2023/03/28 03:39:22;;;;;;;;;;;0.42;20.16;;;;;;2670284;76;20346;-90
2023/03/28 03:46:57;;;;;;;;;;;0.28;19.71;;;;;;2669941;76;20906;-89
2023/03/28 03:50:32;;;;;;;;;;;0.34;20.44;;;;;;2669658;76;20481;-88
2023/03/28 03:54:01;;;;;;;;;;;0.43;20.83;;;;;;2670749;76;20471;-90
2023/03/28 03:58:09;;;;;;;;;;;0.33;19.81;;;;;;2669403;76;20350;-90
2023/03/28 04:01:56;;;;;;;;;;;0.28;19.61;;;;;;2669754;76;20331;-91
2023/03/28 04:05:40;;;;;;;;;;;0.17;19.31;;;;;;2668988;76;20585;-92
2023/03/28 04:09:11;;;;;;;;;;;0.17;18.83;;;;;;2670643;76;20411;-89
2023/03/28 04:12:39;;;;;;;;;;;0.15;18.02;;;;;;2670923;76;20459;-90
2023/03/28 04:16:07;;;;;;;;;;;0.06;18.19;;;;;;2671444;76;20463;-90
2023/03/28 04:19:39;;;;;;;;;;;-0.01;18.93;;;;;;2671048;76;20568;-90
2023/03/28 04:23:07;;;;;;;;;;;0.07;18.57;;;;;;2671578;76;20317;-90
2023/03/28 04:26:36;;;;;;;;;;;0.04;17.56;;;;;;2671504;76;20484;-89
2023/03/28 04:30:05;;;;;;;;;;;0.02;17.32;;;;;;2671303;76;20847;-90
2023/03/28 04:33:33;;;;;;;;;;;-0.05;16.66;;;;;;2670169;76;20674;-90
2023/03/28 04:37:01;;;;;;;;;;;-0.05;17.06;;;;;;2671563;76;20792;-90
2023/03/28 04:40:29;;;;;;;;;;;-0.05;17.01;;;;;;2670772;76;20972;-90
2023/03/28 04:43:57;;;;;;;;;;;-0.05;16.19;;;;;;2671101;76;20878;-90
2023/03/28 04:47:25;;;;;;;;;;;-0.08;16.02;;;;;;2671725;76;20426;-89
2023/03/28 04:50:54;;;;;;;;;;;-0.05;16.07;;;;;;2671440;76;20305;-90
2023/03/28 04:54:22;;;;;;;;;;;-0.15;16.27;;;;;;2671121;76;20941;-90
2023/03/28 04:57:50;;;;;;;;;;;-0.17;16.57;;;;;;2671403;76;20888;-91
2023/03/28 05:01:18;;;;;;;;;;;-0.12;16.71;;;;;;2671474;76;20430;-89
2023/03/28 05:04:46;;;;;;;;;;;-0.13;16.83;;;;;;2670913;76;20453;-89
2023/03/28 05:08:15;;;;;;;;;;;-0.06;16.41;;;;;;2670557;76;20319;-88
2023/03/28 05:11:43;;;;;;;;;;;-0.00;16.06;;;;;;2669844;76;20733;-89
2023/03/28 05:15:11;;;;;;;;;;;-0.10;16.57;;;;;;2669753;76;20423;-89
2023/03/28 05:18:39;;;;;;;;;;;-0.08;16.89;;;;;;2669555;76;20473;-89
2023/03/28 05:22:07;;;;;;;;;;;0.01;17.53;;;;;;2669026;76;20900;-89
2023/03/28 05:25:36;;;;;;;;;;;0.07;17.59;;;;;;2667861;76;20836;-89
2023/03/28 05:29:04;;;;;;;;;;;0.08;17.44;;;;;;2667912;76;20465;-86
2023/03/28 05:32:32;;;;;;;;;;;0.18;17.81;;;;;;2665922;76;21097;-89
2023/03/28 05:36:00;;;;;;;;;;;0.20;17.67;;;;;;2668749;76;21002;-86
2023/03/28 05:39:28;;;;;;;;;;;0.18;18.18;;;;;;2668673;76;20467;-90
2023/03/28 05:42:57;;;;;;;;;;;0.33;18.10;;;;;;2668011;76;20474;-88
2023/03/28 05:46:25;;;;;;;;;;;0.54;18.09;;;;;;2667878;76;21129;-89
2023/03/28 05:49:53;;;;;;;;;;;0.57;17.53;;;;;;2668037;76;20440;-89
2023/03/28 05:53:21;;;;;;;;;;;0.65;17.49;;;;;;2667605;76;20417;-88
2023/03/28 05:56:49;;;;;;;;;;;0.63;17.49;;;;;;2669051;76;20444;-89
2023/03/28 06:00:18;;;;;;;;;;;0.64;17.09;;;;;;2667533;76;20484;-89
2023/03/28 06:03:46;;;;;;;;;;;0.76;17.11;;;;;;2667859;76;20491;-90
2023/03/28 06:07:14;;;;;;;;;;;0.81;16.83;;;;;;2668434;76;20915;-90
2023/03/28 06:10:42;;;;;;;;;;;0.91;16.87;;;;;;2668142;76;20453;-89
2023/03/28 06:14:11;;;;;;;;;;;0.96;16.75;;;;;;2668638;76;20330;-89
2023/03/28 06:17:39;;;;;;;;;;;0.97;16.36;;;;;;2666945;76;20451;-89
2023/03/28 06:21:07;;;;;;;;;;;0.95;16.37;;;;;;2667823;76;20492;-89
2023/03/28 06:24:36;;;;;;;;;;;1.05;16.17;;;;;;2668441;76;20423;-89
2023/03/28 06:28:04;;;;;;;;;;;1.06;16.07;;;;;;2667996;76;20374;-89
2023/03/28 06:31:32;;;;;;;;;;;1.17;15.77;;;;;;2667377;76;20449;-89
2023/03/28 06:35:00;;;;;;;;;;;1.34;15.57;;;;;;2668211;76;20430;-88
2023/03/28 06:38:30;;;;;;;;;;;1.32;15.03;;;;;;2666719;76;20461;-90
2023/03/28 06:42:01;;;;;;;;;;;1.32;14.73;;;;;;2668593;76;20967;-90
2023/03/28 06:45:28;;;;;;;;;;;1.39;14.41;;;;;;2667997;76;21007;-90
2023/03/28 06:48:56;;;;;;;;;;;1.52;14.53;;;;;;2668484;76;20998;-89
2023/03/28 06:52:24;;;;;;;;;;;1.65;14.23;;;;;;2668343;76;20967;-89
2023/03/28 06:55:52;;;;;;;;;;;1.71;13.61;;;;;;2668443;76;20869;-90
2023/03/28 06:59:20;;;;;;;;;;;1.81;13.00;;;;;;2669022;76;20911;-89
2023/03/28 07:02:51;;;;;;;;;;;1.82;12.22;;;;;;2667113;76;20825;-90
2023/03/28 07:06:19;;;;;;;;;;;1.96;11.44;;;;;;2669304;76;20446;-90
2023/03/28 07:09:50;;;;;;;;;;;1.94;10.79;;;;;;2668955;76;20449;-90
2023/03/28 07:13:17;;;;;;;;;;;2.05;10.57;;;;;;2668718;76;20438;-90
2023/03/28 07:16:45;;;;;;;;;;;2.10;10.41;;;;;;2668245;76;20317;-90
2023/03/28 07:20:13;;;;;;;;;;;2.44;10.14;;;;;;2667910;76;20311;-88
2023/03/28 07:23:42;;;;;;;;;;;2.56;9.87;;;;;;2667919;76;20889;-89
2023/03/28 07:27:10;;;;;;;;;;;2.59;9.31;;;;;;2668535;76;21207;-89
2023/03/28 07:30:38;;;;;;;;;;;2.69;8.95;;;;;;2667851;76;20976;-90
2023/03/28 07:34:06;;;;;;;;;;;2.85;7.69;;;;;;2669077;76;20938;-90
2023/03/28 07:37:34;;;;;;;;;;;3.04;6.56;;;;;;2669020;76;20884;-90
2023/03/28 07:41:02;;;;;;;;;;;3.40;6.29;;;;;;2668474;76;20449;-90
2023/03/28 07:44:30;;;;;;;;;;;3.82;5.75;;;;;;2668502;76;20462;-90
2023/03/28 07:47:58;;;;;;;;;;;4.16;4.48;;;;;;2668635;76;20309;-89
2023/03/28 07:51:26;;;;;;;;;;;4.78;4.56;;;;;;2668623;76;20421;-90
2023/03/28 07:54:55;;;;;;;;;;;4.79;2.31;;;;;;2667987;76;20451;-90
2023/03/28 07:58:23;;;;;;;;;;;4.30;0.66;;;;;;2668696;76;20646;-90
2023/03/28 08:01:51;;;;;;;;;;;4.16;0.21;;;;;;2668602;76;20464;-90
2023/03/28 08:05:20;;;;;;;;;;;4.14;0.23;;;;;;2667798;76;20438;-90
2023/03/28 08:08:49;;;;;;;;;;;4.33;0.07;;;;;;2669048;76;20481;-91
2023/03/28 08:12:22;;;;;;;;;;;4.63;-0.03;;;;;;2668556;76;20461;-91
2023/03/28 08:15:50;;;;;;;;;;;4.67;-0.87;;;;;;2669165;76;20407;-91
2023/03/28 08:19:18;;;;;;;;;;;5.02;-2.03;;;;;;2668020;76;20447;-92
2023/03/28 08:22:48;;;;;;;;;;;5.18;-1.70;;;;;;2669308;76;20461;-91
2023/03/28 08:26:16;;;;;;;;;;;4.88;-2.03;;;;;;2668743;76;20416;-91
2023/03/28 08:29:44;;;;;;;;;;;5.08;-2.90;;;;;;2667625;76;21127;-92
2023/03/28 08:33:16;;;;;;;;;;;4.57;-4.14;;;;;;2669002;76;20898;-92
2023/03/28 08:36:44;;;;;;;;;;;4.41;-3.80;;;;;;2668267;76;20509;-92
2023/03/28 08:40:13;;;;;;;;;;;4.46;-4.37;;;;;;2669347;76;20501;-89
2023/03/28 08:43:44;;;;;;;;;;;4.73;-4.86;;;;;;2668806;76;20463;-90
2023/03/28 08:47:12;;;;;;;;;;;4.76;-5.14;;;;;;2668632;76;20460;-90
2023/03/28 08:50:40;;;;;;;;;;;4.56;117.74;;;;;;2668966;76;20469;-90
2023/03/28 08:54:08;;;;;;;;;;;4.60;116.79;;;;;;2668656;76;20468;-90
2023/03/28 08:57:36;;;;;;;;;;;4.84;117.90;;;;;;2668972;76;20448;-90
2023/03/28 09:01:04;;;;;;;;;;;4.76;117.60;;;;;;2668968;76;20423;-91
2023/03/28 09:04:33;;;;;;;;;;;5.19;118.19;;;;;;2669434;76;20467;-90
2023/03/28 09:08:01;;;;;;;;;;;5.36;117.24;;;;;;2669184;76;20341;-90
2023/03/28 09:11:30;;;;;;;;;;;6.04;116.57;;;;;;2669151;76;20776;-90
2023/03/28 09:14:58;;;;;;;;;;;6.02;115.80;;;;;;2669260;76;20429;-90
2023/03/28 09:18:27;;;;;;;;;;;5.78;114.00;;;;;;2668902;76;20779;-91
2023/03/28 09:21:55;;;;;;;;;;;5.22;113.44;;;;;;2669296;76;20472;-89
2023/03/28 09:25:26;;;;;;;;;;;4.90;114.50;;;;;;2668376;76;20437;-91
2023/03/28 09:28:53;;;;;;;;;;;5.02;115.03;;;;;;2667916;76;20501;-91
2023/03/28 09:32:21;;;;;;;;;;;5.17;112.84;;;;;;2667869;76;20792;-89
2023/03/28 09:35:52;;;;;;;;;;;5.48;112.03;;;;;;2668040;76;20546;-90
2023/03/28 09:39:20;;;;;;;;;;;6.13;110.93;;;;;;2668163;76;20828;-90
2023/03/28 09:42:49;;;;;;;;;;;6.22;109.90;;;;;;2668705;76;20442;-91
2023/03/28 09:46:17;;;;;;;;;;;5.52;110.85;;;;;;2669394;76;20482;-92
2023/03/28 09:49:45;;;;;;;;;;;5.22;110.17;;;;;;2669593;76;21246;-90
2023/03/28 09:53:13;;;;;;;;;;;5.45;109.95;;;;;;2668674;76;20455;-91
2023/03/28 09:56:41;;;;;;;;;;;5.97;109.21;;;;;;2668750;76;20444;-91
2023/03/28 10:00:11;;;;;;;;;;;5.90;106.30;;;;;;2667869;76;21199;-92
2023/03/28 10:03:39;;;;;;;;;;;6.00;108.27;;;;;;2668688;76;20463;-91
2023/03/28 10:07:07;;;;;;;;;;;5.51;109.35;;;;;;2668998;76;20477;-91
2023/03/28 10:10:35;;;;;;;;;;;5.71;109.48;;;;;;2668240;76;20459;-90
2023/03/28 10:14:04;;;;;;;;;;;6.45;107.84;;;;;;2669025;76;20421;-91
2023/03/28 10:17:36;;;;;;;;;;;6.78;104.58;;;;;;2668485;76;20895;-91
2023/03/28 10:21:04;;;;;;;;;;;6.51;104.17;;;;;;2668571;76;20452;-91
2023/03/28 10:24:32;;;;;;;;;;;6.34;105.62;;;;;;2668121;76;20622;-91
2023/03/28 10:28:01;;;;;;;;;;;6.20;106.70;;;;;;2667950;76;20488;-91
2023/03/28 10:31:29;;;;;;;;;;;6.40;107.99;;;;;;2667320;76;20491;-90
2023/03/28 10:34:57;;;;;;;;;;;6.23;108.70;;;;;;2668351;76;20488;-91
2023/03/28 10:38:25;;;;;;;;;;;5.97;110.01;;;;;;2669073;76;20350;-89
2023/03/28 10:41:54;;;;;;;;;;;6.34;110.00;;;;;;2668896;76;20449;-90
2023/03/28 10:45:22;;;;;;;;;;;6.85;109.53;;;;;;2668609;76;20478;-90
2023/03/28 10:48:51;;;;;;;;;;;6.85;109.04;;;;;;2668778;76;20931;-90
2023/03/28 10:52:19;;;;;;;;;;;6.87;109.62;;;;;;2667541;76;20522;-90
2023/03/28 10:55:47;;;;;;;;;;;6.68;109.35;;;;;;2667774;76;20470;-90
2023/03/28 10:59:15;;;;;;;;;;;6.41;107.51;;;;;;2668324;76;20459;-91
2023/03/28 11:02:44;;;;;;;;;;;6.60;106.66;;;;;;2667856;76;20445;-91
2023/03/28 11:06:12;;;;;;;;;;;7.54;105.34;;;;;;2668931;76;20445;-90
2023/03/28 11:09:40;;;;;;;;;;;7.75;104.15;;;;;;2666452;76;21206;-92
2023/03/28 11:13:08;;;;;;;;;;;8.60;104.18;;;;;;2668576;76;20304;-90
2023/03/28 11:16:37;;;;;;;;;;;8.97;103.54;;;;;;2668293;76;20329;-91
2023/03/28 11:20:09;;;;;;;;;;;8.79;100.82;;;;;;2669304;76;20726;-91
2023/03/28 11:23:37;;;;;;;;;;;7.46;99.48;;;;;;2668380;76;20467;-91
2023/03/28 11:27:05;;;;;;;;;;;6.69;101.96;;;;;;2666733;76;20352;-90
2023/03/28 11:30:34;;;;;;;;;;;6.27;101.92;;;;;;2667540;76;20310;-91
2023/03/28 11:34:02;;;;;;;;;;;6.76;102.45;;;;;;2668377;76;20441;-90
2023/03/28 11:37:30;;;;;;;;;;;6.69;103.90;;;;;;2668119;76;20307;-91
2023/03/28 11:40:58;;;;;;;;;;;6.76;101.77;;;;;;2667885;76;20913;-89
2023/03/28 11:44:26;;;;;;;;;;;7.75;102.30;;;;;;2666918;76;20899;-90
2023/03/28 11:47:56;;;;;;;;;;;8.26;101.03;;;;;;2666022;76;20930;-87
2023/03/28 11:51:24;;;;;;;;;;;8.06;100.35;;;;;;2667406;76;20473;-89
2023/03/28 11:54:52;;;;;;;;;;;7.40;101.37;;;;;;2667240;76;20443;-89
2023/03/28 11:58:20;;;;;;;;;;;7.02;104.49;;;;;;2667248;76;20492;-90
2023/03/28 12:01:48;;;;;;;;;;;6.90;105.77;;;;;;2666886;76;20501;-90
2023/03/28 12:05:17;;;;;;;;;;;7.08;106.66;;;;;;2666110;76;20428;-91
2023/03/28 12:08:48;;;;;;;;;;;6.82;105.60;;;;;;2667226;76;20472;-90
2023/03/28 12:12:16;;;;;;;;;;;6.72;105.71;;;;;;2666577;76;20478;-89
2023/03/28 12:15:44;;;;;;;;;;;6.19;103.19;;;;;;2667164;76;20474;-91
2023/03/28 12:19:12;;;;;;;;;;;6.27;103.92;;;;;;2666367;76;20461;-88
2023/03/28 12:22:41;;;;;;;;;;;6.25;103.54;;;;;;2667502;76;20457;-90
2023/03/28 12:26:09;;;;;;;;;;;5.92;102.89;;;;;;2668094;76;21226;-93
2023/03/28 12:29:39;;;;;;;;;;;6.05;104.31;;;;;;2668097;76;20871;-93
2023/03/28 12:33:10;;;;;;;;;;;6.11;104.44;;;;;;2668694;76;20527;-93
2023/03/28 12:36:48;;;;;;;;;;;6.08;104.18;;;;;;2668463;76;20428;-92
2023/03/28 12:40:19;;;;;;;;;;;6.42;103.29;;;;;;2669938;76;20425;-92
2023/03/28 12:43:47;;;;;;;;;;;6.97;104.56;;;;;;2669227;76;20936;-92
2023/03/28 12:47:21;;;;;;;;;;;7.33;105.35;;;;;;2666010;76;20418;-92
2023/03/28 12:50:54;;;;;;;;;;;7.48;106.44;;;;;;2665391;76;20470;-92
2023/03/28 12:54:30;;;;;;;;;;;7.35;106.06;;;;;;2666488;76;20463;-92
2023/03/28 12:58:08;;;;;;;;;;;7.25;105.96;;;;;;2666300;76;20417;-92
2023/03/28 13:01:38;;;;;;;;;;;7.25;106.05;;;;;;2666595;76;20432;-92
2023/03/28 13:05:11;;;;;;;;;;;7.34;105.79;;;;;;2667479;76;20964;-91
2023/03/28 13:08:39;;;;;;;;;;;7.58;105.14;;;;;;2666925;76;20453;-92
2023/03/28 13:12:11;;;;;;;;;;;7.91;104.87;;;;;;2666490;76;21072;-92
2023/03/28 13:15:45;;;;;;;;;;;7.62;106.80;;;;;;2666240;76;20466;-91
2023/03/28 13:19:19;;;;;;;;;;;7.10;104.44;;;;;;2667382;76;21028;-91
2023/03/28 13:23:09;;;;;;;;;;;6.94;103.52;;;;;;2666919;76;20435;-90
2023/03/28 13:26:23;;;;;;;;;;;7.01;105.01;;;;;;2665301;76;21051;-91
2023/03/28 13:29:53;;;;;;;;;;;6.82;105.35;;;;;;2666768;76;20435;-91
2023/03/28 13:33:21;;;;;;;;;;;6.97;105.85;;;;;;2666961;76;20462;-91
2023/03/28 13:36:52;;;;;;;;;;;7.18;105.24;;;;;;2666923;76;20438;-88
2023/03/28 13:40:20;;;;;;;;;;;7.08;102.17;;;;;;2667512;76;20907;-90
2023/03/28 13:43:49;;;;;;;;;;;7.14;101.34;;;;;;2668137;76;20778;-89
2023/03/28 13:47:17;;;;;;;;;;;7.63;105.05;;;;;;2667026;76;20431;-90
2023/03/28 13:50:47;;;;;;;;;;;7.62;103.50;;;;;;2668099;76;20430;-91
2023/03/28 13:54:16;;;;;;;;;;;7.18;101.22;;;;;;2666515;76;20436;-89
2023/03/28 13:57:45;;;;;;;;;;;7.49;103.54;;;;;;2665905;76;21225;-89
2023/03/28 14:01:13;;;;;;;;;;;7.55;103.06;;;;;;2668162;76;20768;-90
2023/03/28 14:04:41;;;;;;;;;;;7.54;101.83;;;;;;2670085;76;20358;-89
2023/03/28 14:08:10;;;;;;;;;;;7.69;102.78;;;;;;2668857;76;20457;-90
2023/03/28 14:11:41;;;;;;;;;;;7.91;102.76;;;;;;2669081;76;20823;-90
2023/03/28 14:15:12;;;;;;;;;;;7.86;102.07;;;;;;2669868;76;20461;-89
2023/03/28 14:18:44;;;;;;;;;;;8.02;102.33;;;;;;2668758;76;20417;-90
2023/03/28 14:22:12;;;;;;;;;;;8.20;102.43;;;;;;2669266;76;20442;-90
2023/03/28 14:25:43;;;;;;;;;;;8.13;102.43;;;;;;2669322;76;20504;-90
2023/03/28 14:29:12;;;;;;;;;;;8.08;101.41;;;;;;2668371;76;20502;-89
2023/03/28 14:32:40;;;;;;;;;;;8.34;101.93;;;;;;2667094;76;20364;-89
2023/03/28 14:36:09;;;;;;;;;;;8.43;101.16;;;;;;2668950;76;20462;-90
2023/03/28 14:39:40;;;;;;;;;;;8.55;101.03;;;;;;2669445;76;20429;-90
2023/03/28 14:43:09;;;;;;;;;;;8.50;100.22;;;;;;2669312;76;20448;-90
2023/03/28 14:46:40;;;;;;;;;;;8.51;99.78;;;;;;2668697;76;20554;-90
2023/03/28 14:50:09;;;;;;;;;;;8.46;98.92;;;;;;2668892;76;20475;-90
2023/03/28 14:53:38;;;;;;;;;;;8.58;98.55;;;;;;2668641;76;20452;-89
2023/03/28 14:57:08;;;;;;;;;;;9.32;100.29;;;;;;2667927;76;20475;-88
2023/03/28 15:00:41;;;;;;;;;;;9.46;99.83;;;;;;2667766;76;20930;-89
2023/03/28 15:04:22;;;;;;;;;;;;;;;;;;;;;
2023/03/28 15:07:47;;;;;;;;;;;9.98;99.05;;;;;;2668774;76;20448;-91
2023/03/28 15:11:15;;;;;;;;;;;10.24;98.50;;;;;;2669501;76;20904;-92
2023/03/28 15:14:49;;;;;;;;;;;10.37;98.54;;;;;;2668986;76;20494;-92
2023/03/28 15:18:27;;;;;;;;;;;;;;;;;;;;;
2023/03/28 15:21:47;;;;;;;;;;;11.11;97.36;;;;;;2668989;76;20476;-89
2023/03/28 15:25:16;;;;;;;;;;;10.86;97.06;;;;;;2668985;76;20565;-91
2023/03/28 15:28:47;;;;;;;;;;;11.11;99.62;;;;;;2667755;76;20461;-92
2023/03/28 15:32:17;;;;;;;;;;;11.46;104.39;;;;;;2667440;76;21404;-92
2023/03/28 15:35:54;;;;;;;;;;;11.14;103.68;;;;;;2668222;76;20453;-90
2023/03/28 15:39:54;;;;;;;;;;;;;;;;;;;;;
2023/03/28 15:43:04;;;;;;;;;;;9.95;99.20;;;;;;2668162;76;20488;-92
2023/03/28 15:46:32;;;;;;;;;;;9.95;101.12;;;;;;2667266;76;20882;-90
2023/03/28 15:50:02;;;;;;;;;;;9.50;100.27;;;;;;2668999;76;20425;-92
2023/03/28 15:53:30;;;;;;;;;;;9.54;100.20;;;;;;2668881;76;20508;-91
2023/03/28 15:57:02;;;;;;;;;;;9.77;101.09;;;;;;2666853;76;20448;-90
2023/03/28 16:00:30;;;;;;;;;;;9.85;101.18;;;;;;2665511;76;20510;-90
2023/03/28 16:03:59;;;;;;;;;;;9.76;99.85;;;;;;2668212;76;20431;-89
2023/03/28 16:07:29;;;;;;;;;;;10.38;97.43;;;;;;2667540;76;20867;-88
2023/03/28 16:10:57;;;;;;;;;;;11.44;96.93;;;;;;2668294;76;20457;-89
2023/03/28 16:14:25;;;;;;;;;;;12.72;99.14;;;;;;2666907;76;20968;-89
2023/03/28 16:17:57;;;;;;;;;;;14.33;97.17;;;;;;2667561;76;20485;-89
2023/03/28 16:21:23;;;;;;;;;;;16.59;93.56;;;;;;2670007;76;20776;-90
2023/03/28 16:24:51;;;;;;;;;;;16.10;88.94;;;;;;2668805;76;20480;-89
2023/03/28 16:28:19;;;;;;;;;;;16.08;86.23;;;;;;2670276;76;20329;-89
2023/03/28 16:31:47;;;;;;;;;;;17.80;87.05;;;;;;2668152;76;20408;-89
2023/03/28 16:35:15;;;;;;;;;;;18.08;83.65;;;;;;2669976;76;20912;-90
2023/03/28 16:38:46;;;;;;;;;;;16.59;85.61;;;;;;2671109;76;20441;-90
2023/03/28 16:42:15;;;;;;;;;;;14.49;91.17;;;;;;2671025;76;20922;-90
2023/03/28 16:45:43;;;;;;;;;;;14.37;89.04;;;;;;2670985;76;20953;-90
2023/03/28 16:49:11;;;;;;;;;;;12.02;92.06;;;;;;2671113;76;20513;-88
2023/03/28 16:52:47;;;;;;;;;;;11.02;96.52;;;;;;2671802;76;20301;-90
2023/03/28 16:56:14;;;;;;;;;;;10.64;100.36;;;;;;2671703;76;20300;-89
2023/03/28 16:59:42;;;;;;;;;;;9.93;97.69;;;;;;2670885;76;20366;-88
2023/03/28 17:03:10;;;;;;;;;;;10.36;99.23;;;;;;2670622;76;20421;-89
2023/03/28 17:06:38;;;;;;;;;;;9.61;100.79;;;;;;2670163;76;20421;-89
2023/03/28 17:10:07;;;;;;;;;;;9.84;103.63;;;;;;2669287;76;20495;-89
2023/03/28 17:13:35;;;;;;;;;;;8.82;106.03;;;;;;2669730;76;21602;-88
2023/03/28 17:17:03;;;;;;;;;;;8.28;108.17;;;;;;2670591;76;20480;-88
2023/03/28 17:20:32;;;;;;;;;;;7.82;109.64;;;;;;2670507;76;20472;-88
2023/03/28 17:24:00;;;;;;;;;;;7.40;110.55;;;;;;2669873;76;20938;-88
2023/03/28 17:27:29;;;;;;;;;;;7.04;111.52;;;;;;2670249;76;20436;-87
2023/03/28 17:30:57;;;;;;;;;;;6.69;112.38;;;;;;2670701;76;20959;-88
2023/03/28 17:34:34;;;;;;;;;;;6.37;113.11;;;;;;2670060;76;20461;-89
2023/03/28 17:38:02;;;;;;;;;;;6.12;113.80;;;;;;2670149;76;20917;-88
2023/03/28 17:41:30;;;;;;;;;;;5.82;114.48;;;;;;2669614;76;20453;-88
2023/03/28 17:44:58;;;;;;;;;;;5.61;115.02;;;;;;2670074;76;20488;-88
2023/03/28 17:48:26;;;;;;;;;;;5.41;115.56;;;;;;2669580;76;20467;-89
2023/03/28 17:51:55;;;;;;;;;;;5.25;116.07;;;;;;2669987;76;20454;-88
2023/03/28 17:55:24;;;;;;;;;;;5.10;116.50;;;;;;2670122;76;20880;-88
2023/03/28 17:58:52;;;;;;;;;;;4.95;116.85;;;;;;2670078;76;20836;-88
2023/03/28 18:02:20;;;;;;;;;;;4.86;117.22;;;;;;2670134;76;20464;-88
2023/03/28 18:05:49;;;;;;;;;;;4.78;117.68;;;;;;2670276;76;20443;-88
2023/03/28 18:09:17;;;;;;;;;;;4.73;118.20;;;;;;2669962;76;21644;-89
2023/03/28 18:12:45;;;;;;;;;;;4.67;118.63;;;;;;2669740;76;20501;-88
2023/03/28 18:16:13;;;;;;;;;;;4.68;-5.96;;;;;;2669666;76;20400;-87
2023/03/28 18:19:41;;;;;;;;;;;4.64;-5.62;;;;;;2670214;76;20460;-88
2023/03/28 18:23:09;;;;;;;;;;;4.54;-5.34;;;;;;2670361;76;20976;-88
2023/03/28 18:26:40;;;;;;;;;;;4.46;-4.95;;;;;;2668945;76;21263;-89
2023/03/28 18:30:08;;;;;;;;;;;4.33;-4.77;;;;;;2670262;76;20892;-88
2023/03/28 18:33:36;;;;;;;;;;;4.19;-4.61;;;;;;2668650;76;20885;-88
2023/03/28 18:37:04;;;;;;;;;;;4.07;-4.65;;;;;;2668969;76;20462;-88
2023/03/28 18:40:32;;;;;;;;;;;3.93;-4.56;;;;;;2670262;76;20347;-87
2023/03/28 18:44:00;;;;;;;;;;;3.79;-4.69;;;;;;2670768;76;20419;-88
2023/03/28 18:47:28;;;;;;;;;;;3.64;-4.75;;;;;;2670976;76;20702;-88
2023/03/28 18:50:57;;;;;;;;;;;3.47;-4.77;;;;;;2671588;76;20355;-88
2023/03/28 18:54:25;;;;;;;;;;;3.31;-4.66;;;;;;2670564;76;20354;-88
2023/03/28 18:57:53;;;;;;;;;;;3.16;-4.51;;;;;;2669352;76;20436;-86
2023/03/28 19:01:21;;;;;;;;;;;3.03;-4.41;;;;;;2670281;76;20442;-87
2023/03/28 19:04:50;;;;;;;;;;;2.91;-4.22;;;;;;2670746;76;21025;-88
2023/03/28 19:08:18;;;;;;;;;;;2.82;-4.09;;;;;;2670901;76;20777;-88
2023/03/28 19:11:47;;;;;;;;;;;2.75;-3.96;;;;;;2670157;76;20470;-88
2023/03/28 19:15:15;;;;;;;;;;;2.68;-3.83;;;;;;2670260;76;20483;-88
2023/03/28 19:18:44;;;;;;;;;;;2.64;-3.70;;;;;;2669565;76;20893;-88
2023/03/28 19:22:12;;;;;;;;;;;2.60;-3.63;;;;;;2669896;76;20451;-87
2023/03/28 19:25:42;;;;;;;;;;;2.52;-3.55;;;;;;2669249;76;20464;-90
2023/03/28 19:29:10;;;;;;;;;;;2.46;-3.47;;;;;;2670114;76;20465;-90
2023/03/28 19:32:43;;;;;;;;;;;2.43;-3.09;;;;;;2671006;76;20433;-90
2023/03/28 19:36:11;;;;;;;;;;;2.37;-2.92;;;;;;2671377;76;20506;-87
2023/03/28 19:39:39;;;;;;;;;;;2.29;-2.90;;;;;;2670033;76;20405;-88
2023/03/28 19:43:09;;;;;;;;;;;2.24;-2.87;;;;;;2669967;76;20894;-90
2023/03/28 19:46:38;;;;;;;;;;;2.21;-2.89;;;;;;2669837;76;20973;-90
2023/03/28 19:50:10;;;;;;;;;;;2.17;-2.81;;;;;;2669220;76;20510;-89
2023/03/28 19:53:39;;;;;;;;;;;2.13;-2.57;;;;;;2669736;76;20429;-89
2023/03/28 19:57:07;;;;;;;;;;;2.13;-2.22;;;;;;2668883;76;20449;-90
2023/03/28 20:00:35;;;;;;;;;;;2.25;-1.84;;;;;;2669744;76;20436;-90
2023/03/28 20:04:04;;;;;;;;;;;2.37;-1.51;;;;;;2670165;76;20452;-90
2023/03/28 20:07:35;;;;;;;;;;;2.46;-1.31;;;;;;2669665;76;20974;-91
2023/03/28 20:11:06;;;;;;;;;;;2.51;-1.12;;;;;;2668344;76;20475;-91
2023/03/28 20:14:43;;;;;;;;;;;2.54;-1.02;;;;;;2669520;76;20413;-90
2023/03/28 20:18:26;;;;;;;;;;;2.56;-0.94;;;;;;2669466;76;20951;-90
2023/03/28 20:22:08;;;;;;;;;;;2.56;-0.76;;;;;;2669009;76;20438;-91
2023/03/28 20:25:37;;;;;;;;;;;2.58;-0.54;;;;;;2667943;76;20498;-88
2023/03/28 20:29:09;;;;;;;;;;;2.61;-0.35;;;;;;2670084;76;20496;-89
2023/03/28 20:32:48;;;;;;;;;;;2.60;-0.24;;;;;;2669886;76;20542;-89
2023/03/28 20:36:16;;;;;;;;;;;2.66;0.04;;;;;;2668935;76;20430;-89
2023/03/28 20:39:50;;;;;;;;;;;2.71;0.32;;;;;;2670236;76;20447;-90
2023/03/28 20:43:35;;;;;;;;;;;;;;;;;;;;;